sensor_id;sensor_type;location;lat;lon;timestamp;P1;durP1;ratioP1;P2;durP2;ratioP2
37199;SDS011;23096;50.892;16.746;2024-03-22T00:00:05;12.50;;;6.20;;
37199;SDS011;23096;50.892;16.746;2024-03-22T00:02:37;6.90;;;5.40;;
37199;SDS011;23096;50.892;16.746;2024-03-22T00:05:04;6.00;;;5.30;;
37199;SDS011;23096;50.892;16.746;2024-03-22T00:07:30;18.30;;;7.90;;
37199;SDS011;23096;50.892;16.746;2024-03-22T00:09:56;8.20;;;5.70;;
37199;SDS011;23096;50.892;16.746;2024-03-22T00:12:21;6.20;;;5.00;;
37199;SDS011;23096;50.892;16.746;2024-03-22T00:14:47;7.50;;;5.40;;
37199;SDS011;23096;50.892;16.746;2024-03-22T00:17:13;8.40;;;5.60;;
37199;SDS011;23096;50.892;16.746;2024-03-22T00:19:38;6.50;;;5.10;;
37199;SDS011;23096;50.892;16.746;2024-03-22T00:22:04;6.80;;;5.40;;
37199;SDS011;23096;50.892;16.746;2024-03-22T00:24:29;7.20;;;4.60;;
37199;SDS011;23096;50.892;16.746;2024-03-22T00:26:55;7.40;;;5.60;;
37199;SDS011;23096;50.892;16.746;2024-03-22T00:29:20;8.80;;;6.10;;
37199;SDS011;23096;50.892;16.746;2024-03-22T00:31:46;6.70;;;5.10;;
37199;SDS011;23096;50.892;16.746;2024-03-22T00:34:11;7.80;;;5.70;;
37199;SDS011;23096;50.892;16.746;2024-03-22T00:36:37;7.40;;;5.70;;
37199;SDS011;23096;50.892;16.746;2024-03-22T00:39:02;7.20;;;5.70;;
37199;SDS011;23096;50.892;16.746;2024-03-22T00:41:28;7.00;;;5.70;;
37199;SDS011;23096;50.892;16.746;2024-03-22T00:43:54;7.80;;;6.40;;
37199;SDS011;23096;50.892;16.746;2024-03-22T00:46:19;10.40;;;5.80;;
37199;SDS011;23096;50.892;16.746;2024-03-22T00:48:45;7.10;;;5.60;;
37199;SDS011;23096;50.892;16.746;2024-03-22T00:51:10;8.40;;;6.20;;
37199;SDS011;23096;50.892;16.746;2024-03-22T00:53:36;7.40;;;5.20;;
37199;SDS011;23096;50.892;16.746;2024-03-22T00:56:01;8.20;;;5.80;;
37199;SDS011;23096;50.892;16.746;2024-03-22T00:58:27;8.60;;;6.60;;
37199;SDS011;23096;50.892;16.746;2024-03-22T01:00:53;6.80;;;5.60;;
37199;SDS011;23096;50.892;16.746;2024-03-22T01:03:19;8.00;;;5.90;;
37199;SDS011;23096;50.892;16.746;2024-03-22T01:05:45;7.30;;;5.20;;
37199;SDS011;23096;50.892;16.746;2024-03-22T01:08:10;8.20;;;5.30;;
37199;SDS011;23096;50.892;16.746;2024-03-22T01:10:36;6.20;;;4.60;;
37199;SDS011;23096;50.892;16.746;2024-03-22T01:13:01;7.20;;;5.10;;
37199;SDS011;23096;50.892;16.746;2024-03-22T01:15:27;7.30;;;5.40;;
37199;SDS011;23096;50.892;16.746;2024-03-22T01:17:52;5.30;;;4.50;;
37199;SDS011;23096;50.892;16.746;2024-03-22T01:20:18;8.70;;;5.70;;
37199;SDS011;23096;50.892;16.746;2024-03-22T01:22:44;7.20;;;5.50;;
37199;SDS011;23096;50.892;16.746;2024-03-22T01:25:09;6.60;;;4.90;;
37199;SDS011;23096;50.892;16.746;2024-03-22T01:27:35;8.50;;;4.80;;
37199;SDS011;23096;50.892;16.746;2024-03-22T01:30:01;6.50;;;4.90;;
37199;SDS011;23096;50.892;16.746;2024-03-22T01:32:27;8.40;;;5.70;;
37199;SDS011;23096;50.892;16.746;2024-03-22T01:34:53;6.00;;;4.80;;
37199;SDS011;23096;50.892;16.746;2024-03-22T01:37:18;8.30;;;5.90;;
37199;SDS011;23096;50.892;16.746;2024-03-22T01:39:44;8.70;;;5.30;;
37199;SDS011;23096;50.892;16.746;2024-03-22T01:42:09;7.80;;;5.90;;
37199;SDS011;23096;50.892;16.746;2024-03-22T01:44:35;7.20;;;5.60;;
37199;SDS011;23096;50.892;16.746;2024-03-22T01:47:00;9.40;;;6.00;;
37199;SDS011;23096;50.892;16.746;2024-03-22T01:49:26;8.40;;;5.60;;
37199;SDS011;23096;50.892;16.746;2024-03-22T01:51:52;6.50;;;5.00;;
37199;SDS011;23096;50.892;16.746;2024-03-22T01:54:19;7.40;;;5.50;;
37199;SDS011;23096;50.892;16.746;2024-03-22T01:56:45;8.90;;;6.10;;
37199;SDS011;23096;50.892;16.746;2024-03-22T01:59:11;7.30;;;5.60;;
37199;SDS011;23096;50.892;16.746;2024-03-22T02:01:37;7.80;;;5.80;;
37199;SDS011;23096;50.892;16.746;2024-03-22T02:04:04;8.70;;;6.00;;
37199;SDS011;23096;50.892;16.746;2024-03-22T02:06:31;7.00;;;5.20;;
37199;SDS011;23096;50.892;16.746;2024-03-22T02:08:57;5.90;;;5.00;;
37199;SDS011;23096;50.892;16.746;2024-03-22T02:11:23;9.00;;;5.50;;
37199;SDS011;23096;50.892;16.746;2024-03-22T02:13:50;7.60;;;5.80;;
37199;SDS011;23096;50.892;16.746;2024-03-22T02:16:16;8.10;;;5.70;;
37199;SDS011;23096;50.892;16.746;2024-03-22T02:18:42;7.70;;;5.30;;
37199;SDS011;23096;50.892;16.746;2024-03-22T02:21:07;6.60;;;4.70;;
37199;SDS011;23096;50.892;16.746;2024-03-22T02:23:36;5.80;;;4.30;;
37199;SDS011;23096;50.892;16.746;2024-03-22T02:26:03;7.70;;;5.20;;
37199;SDS011;23096;50.892;16.746;2024-03-22T02:28:29;5.50;;;4.40;;
37199;SDS011;23096;50.892;16.746;2024-03-22T02:30:57;5.90;;;4.30;;
37199;SDS011;23096;50.892;16.746;2024-03-22T02:33:23;6.00;;;4.60;;
37199;SDS011;23096;50.892;16.746;2024-03-22T02:35:49;6.00;;;3.70;;
37199;SDS011;23096;50.892;16.746;2024-03-22T02:38:15;5.80;;;4.10;;
37199;SDS011;23096;50.892;16.746;2024-03-22T02:40:42;6.20;;;4.90;;
37199;SDS011;23096;50.892;16.746;2024-03-22T02:43:08;6.90;;;4.80;;
37199;SDS011;23096;50.892;16.746;2024-03-22T02:45:34;6.70;;;4.30;;
37199;SDS011;23096;50.892;16.746;2024-03-22T02:47:59;7.80;;;5.40;;
37199;SDS011;23096;50.892;16.746;2024-03-22T02:50:25;7.10;;;4.70;;
37199;SDS011;23096;50.892;16.746;2024-03-22T02:52:50;5.00;;;4.20;;
37199;SDS011;23096;50.892;16.746;2024-03-22T02:55:16;7.70;;;4.80;;
37199;SDS011;23096;50.892;16.746;2024-03-22T02:57:41;7.60;;;5.10;;
37199;SDS011;23096;50.892;16.746;2024-03-22T03:00:07;6.30;;;4.60;;
37199;SDS011;23096;50.892;16.746;2024-03-22T03:02:33;6.30;;;4.80;;
37199;SDS011;23096;50.892;16.746;2024-03-22T03:04:58;9.40;;;6.20;;
37199;SDS011;23096;50.892;16.746;2024-03-22T03:07:25;9.40;;;6.50;;
37199;SDS011;23096;50.892;16.746;2024-03-22T03:09:51;8.90;;;6.70;;
37199;SDS011;23096;50.892;16.746;2024-03-22T03:12:16;11.30;;;7.90;;
37199;SDS011;23096;50.892;16.746;2024-03-22T03:14:42;8.50;;;6.70;;
37199;SDS011;23096;50.892;16.746;2024-03-22T03:17:07;11.60;;;7.80;;
37199;SDS011;23096;50.892;16.746;2024-03-22T03:19:33;10.80;;;7.90;;
37199;SDS011;23096;50.892;16.746;2024-03-22T03:21:58;10.70;;;6.40;;
37199;SDS011;23096;50.892;16.746;2024-03-22T03:24:24;11.50;;;8.40;;
37199;SDS011;23096;50.892;16.746;2024-03-22T03:26:49;11.70;;;8.30;;
37199;SDS011;23096;50.892;16.746;2024-03-22T03:29:15;11.80;;;8.60;;
37199;SDS011;23096;50.892;16.746;2024-03-22T03:31:40;9.90;;;7.00;;
37199;SDS011;23096;50.892;16.746;2024-03-22T03:34:06;13.20;;;7.80;;
37199;SDS011;23096;50.892;16.746;2024-03-22T03:36:31;14.10;;;8.50;;
